Time;durP1;ratioP1;P1;durP2;ratioP2;P2;SDS_P1;SDS_P2;PMS_P1;PMS_P2;Temp;Humidity;BMP_temperature;BMP_pressure;BME280_temperature;BME280_humidity;BME280_pressure;Samples;Min_cycle;Max_cycle;Signal;HPM_P1;HPM_P2
2023/07/28 00:01:13;;;;;;;;;;;;;;;;;;5069254;28;20052;-81
2023/07/28 00:03:39;;;;;;;68.40;20.98;;;;;;;;;;5052713;28;19959;-81
2023/07/28 00:06:05;;;;;;;;;;;;;;;;;;5069143;28;20060;-81
2023/07/28 00:08:31;;;;;;;64.32;20.75;;;;;;;;;;5069229;28;19924;-81
2023/07/28 00:10:57;;;;;;;;;;;;;;;;;;5073213;28;20127;-80
2023/07/28 00:13:23;;;;;;;59.05;20.73;;;;;;;;;;5087641;28;20014;-81
2023/07/28 00:15:50;;;;;;;62.10;21.40;;;;;;;;;;5089961;28;20056;-82
2023/07/28 00:18:18;;;;;;;69.88;22.63;;;;;;;;;;5069733;28;20105;-81
2023/07/28 00:20:44;;;;;;;70.05;22.05;;;;;;;;;;5060960;28;20408;-81
2023/07/28 00:23:10;;;;;;;;;;;;;;;;;;5080908;28;20062;-81
2023/07/28 00:25:36;;;;;;;49.25;18.48;;;;;;;;;;5084285;28;20011;-78
2023/07/28 00:28:02;;;;;;;;;;;;;;;;;;5068285;28;20131;-79
2023/07/28 00:30:28;;;;;;;57.95;19.55;;;;;;;;;;5069639;28;20027;-81
2023/07/28 00:32:54;;;;;;;63.42;21.73;;;;;;;;;;5069175;28;20041;-81
2023/07/28 00:35:20;;;;;;;;;;;;;;;;;;5069474;28;20123;-81
2023/07/28 00:37:46;;;;;;;63.03;21.17;;;;;;;;;;5089831;28;20006;-81
2023/07/28 00:40:12;;;;;;;;;;;;;;;;;;5079859;28;20048;-81
2023/07/28 00:42:38;;;;;;;62.17;21.17;;;;;;;;;;5069307;28;19966;-81
2023/07/28 00:45:04;;;;;;;66.35;21.83;;;;;;;;;;5076770;28;20048;-82
2023/07/28 00:47:31;;;;;;;60.90;21.27;;;;;;;;;;5089495;28;20126;-81
2023/07/28 00:49:57;;;;;;;64.70;21.17;;;;;;;;;;5089312;28;20081;-82
2023/07/28 00:52:23;;;;;;;;;;;;;;;;;;5072209;28;20052;-81
2023/07/28 00:54:49;;;;;;;66.53;21.25;;;;;;;;;;5068846;28;19920;-82
2023/07/28 00:57:15;;;;;;;;;;;;;;;;;;5069106;28;20040;-82
2023/07/28 00:59:41;;;;;;;57.42;20.98;;;;;;;;;;5069091;28;20262;-81
2023/07/28 01:02:07;;;;;;;;;;;;;;;;;;5076791;28;20041;-81
2023/07/28 01:04:33;;;;;;;73.82;21.17;;;;;;;;;;5086037;28;19927;-82
2023/07/28 01:06:59;;;;;;;;;;;;;;;;;;5076443;28;20075;-82
2023/07/28 01:09:29;;;;;;;63.25;21.08;;;;;;;;;;5091854;28;19923;-81
2023/07/28 01:11:58;;;;;;;63.17;20.90;;;;;;;;;;5087102;28;20084;-82
2023/07/28 01:14:25;;;;;;;72.88;22.40;;;;;;;;;;5070437;28;20498;-82
2023/07/28 01:16:52;;;;;;;64.28;22.13;;;;;;;;;;5072557;28;20044;-81
2023/07/28 01:19:19;;;;;;;68.53;22.77;;;;;;;;;;5090563;28;20170;-82
2023/07/28 01:21:48;;;;;;;66.75;22.30;;;;;;;;;;5092077;28;20052;-79
2023/07/28 01:24:14;;;;;;;66.25;22.02;;;;;;;;;;5084656;28;20062;-82
2023/07/28 01:26:41;;;;;;;;;;;;;;;;;;5062751;28;20052;-81
2023/07/28 01:29:07;;;;;;;68.70;22.40;;;;;;;;;;5090083;28;20023;-81
2023/07/28 01:31:33;;;;;;;67.95;22.25;;;;;;;;;;5092552;28;20101;-82
2023/07/28 01:33:59;;;;;;;;;;;;;;;;;;5092528;28;20039;-82
2023/07/28 01:36:25;;;;;;;69.80;22.30;;;;;;;;;;5066162;28;20014;-82
2023/07/28 01:38:51;;;;;;;64.50;21.63;;;;;;;;;;5055537;28;20052;-82
2023/07/28 01:41:17;;;;;;;;;;;;;;;;;;5072308;28;20397;-82
2023/07/28 01:43:43;;;;;;;79.72;23.38;;;;;;;;;;5070834;28;19921;-81
2023/07/28 01:46:09;;;;;;;;;;;;;;;;;;5072143;28;20044;-81
2023/07/28 01:48:36;;;;;;;73.88;24.38;;;;;;;;;;5072071;28;20280;-82
2023/07/28 01:51:02;;;;;;;77.47;24.27;;;;;;;;;;5072292;28;20049;-80
2023/07/28 01:53:28;;;;;;;;;;;;;;;;;;5083881;28;20123;-82
2023/07/28 01:55:54;;;;;;;79.82;23.13;;;;;;;;;;5079400;28;20019;-82
2023/07/28 01:58:20;;;;;;;;;;;;;;;;;;5074105;28;20054;-81
2023/07/28 02:00:46;;;;;;;66.45;22.27;;;;;;;;;;5091416;28;20014;-82
2023/07/28 02:03:12;;;;;;;74.20;22.98;;;;;;;;;;5065113;28;20048;-82
2023/07/28 02:05:38;;;;;;;69.88;21.73;;;;;;;;;;5057269;28;20078;-82
2023/07/28 02:08:04;;;;;;;;;;;;;;;;;;5092045;28;20709;-82
2023/07/28 02:10:30;;;;;;;67.00;22.00;;;;;;;;;;5074486;28;19927;-82
2023/07/28 02:12:56;;;;;;;69.25;21.75;;;;;;;;;;5090695;28;20458;-81
2023/07/28 02:15:22;;;;;;;;;;;;;;;;;;5091203;28;20060;-81
2023/07/28 02:17:49;;;;;;;70.28;22.58;;;;;;;;;;5071487;28;19924;-82
2023/07/28 02:20:15;;;;;;;75.57;23.45;;;;;;;;;;5072258;28;20052;-82
2023/07/28 02:22:41;;;;;;;58.40;21.35;;;;;;;;;;5070896;28;20059;-82
2023/07/28 02:25:08;;;;;;;60.78;21.23;;;;;;;;;;5070966;28;20048;-82
2023/07/28 02:27:34;;;;;;;59.20;21.13;;;;;;;;;;5070763;28;20123;-82
2023/07/28 02:30:00;;;;;;;;;;;;;;;;;;5070576;28;20045;-82
2023/07/28 02:32:27;;;;;;;60.10;21.87;;;;;;;;;;5070751;28;19925;-82
2023/07/28 02:34:53;;;;;;;56.95;21.90;;;;;;;;;;5070741;28;20314;-83
2023/07/28 02:37:18;;;;;;;;;;;;;;;;;;5070907;28;20041;-82
2023/07/28 02:39:45;;;;;;;53.83;20.45;;;;;;;;;;5078283;28;20442;-82
2023/07/28 02:42:11;;;;;;;60.17;20.83;;;;;;;;;;5090954;28;20066;-80
2023/07/28 02:44:37;;;;;;;;;;;;;;;;;;5089663;28;20048;-82
2023/07/28 02:47:03;;;;;;;61.75;21.58;;;;;;;;;;5091220;28;19935;-83
2023/07/28 02:49:29;;;;;;;;;;;;;;;;;;5087791;28;20036;-82
2023/07/28 02:51:55;;;;;;;57.72;20.33;;;;;;;;;;5082532;28;19935;-83
2023/07/28 02:54:23;;;;;;;;;;;;;;;;;;5090457;28;20397;-83
2023/07/28 02:56:49;;;;;;;63.10;20.73;;;;;;;;;;5074234;28;19927;-83
2023/07/28 02:59:15;;;;;;;57.55;20.33;;;;;;;;;;5058542;28;20064;-82
2023/07/28 03:01:41;;;;;;;58.03;20.95;;;;;;;;;;5070447;28;20058;-82
2023/07/28 03:04:07;;;;;;;;;;;;;;;;;;5070974;28;20178;-83
2023/07/28 03:06:34;;;;;;;51.42;19.50;;;;;;;;;;5053337;28;20631;-83
2023/07/28 03:09:00;;;;;;;56.80;20.27;;;;;;;;;;5071140;28;20417;-83
2023/07/28 03:11:26;;;;;;;;;;;;;;;;;;5090499;28;20104;-83
2023/07/28 03:13:52;;;;;;;59.33;19.73;;;;;;;;;;5076513;28;20190;-82
2023/07/28 03:16:17;;;;;;;;;;;;;;;;;;5067815;28;20094;-83
2023/07/28 03:18:44;;;;;;;52.75;20.77;;;;;;;;;;5069653;28;20022;-83
2023/07/28 03:21:09;;;;;;;;;;;;;;;;;;5054103;28;20704;-83
2023/07/28 03:23:36;;;;;;;51.70;19.25;;;;;;;;;;5077058;28;19924;-84
2023/07/28 03:26:02;;;;;;;54.33;20.38;;;;;;;;;;5090465;28;20052;-82
2023/07/28 03:28:28;;;;;;;;;;;;;;;;;;5072067;28;20052;-83
2023/07/28 03:30:54;;;;;;;62.67;19.77;;;;;;;;;;5073615;28;19930;-83
2023/07/28 03:33:20;;;;;;;;;;;;;;;;;;5072789;28;20052;-84
2023/07/28 03:35:46;;;;;;;60.47;19.45;;;;;;;;;;5090408;28;19928;-84
2023/07/28 03:38:12;;;;;;;;;;;;;;;;;;5089960;28;20440;-84
2023/07/28 03:40:38;;;;;;;65.40;22.55;;;;;;;;;;5077197;28;19916;-83
2023/07/28 03:43:04;;;;;;;56.95;21.25;;;;;;;;;;5059019;28;20523;-83
2023/07/28 03:45:30;;;;;;;;;;;;;;;;;;5057004;28;20054;-84
2023/07/28 03:47:56;;;;;;;51.30;19.33;;;;;;;;;;5086166;28;19927;-83
2023/07/28 03:50:24;;;;;;;;;;;;;;;;;;5073483;28;20043;-84
2023/07/28 03:52:50;;;;;;;56.22;20.85;;;;;;;;;;5064465;28;19921;-84
2023/07/28 03:55:16;;;;;;;;;;;;;;;;;;5069705;28;20401;-85
2023/07/28 03:57:42;;;;;;;54.85;20.55;;;;;;;;;;5069425;28;19920;-85
2023/07/28 04:00:08;;;;;;;62.00;21.42;;;;;;;;;;5068415;28;20048;-85
2023/07/28 04:02:34;;;;;;;53.38;19.77;;;;;;;;;;5068980;28;20382;-84
2023/07/28 04:05:00;;;;;;;;;;;;;;;;;;5088465;28;20420;-86
2023/07/28 04:07:26;;;;;;;49.28;20.48;;;;;;;;;;5089144;28;19959;-85
2023/07/28 04:09:52;;;;;;;;;;;;;;;;;;5090231;28;20129;-85
2023/07/28 04:12:18;;;;;;;55.78;20.33;;;;;;;;;;5088078;28;19923;-85
2023/07/28 04:14:44;;;;;;;;;;;;;;;;;;5086325;28;20052;-86
2023/07/28 04:17:11;;;;;;;61.80;20.85;;;;;;;;;;5083888;28;19924;-85
2023/07/28 04:19:37;;;;;;;55.83;20.55;;;;;;;;;;5072600;28;20381;-84
2023/07/28 04:22:03;;;;;;;;;;;;;;;;;;5073833;28;20045;-84
2023/07/28 04:24:29;;;;;;;57.75;20.60;;;;;;;;;;5068877;28;19920;-85
2023/07/28 04:26:55;;;;;;;63.50;20.45;;;;;;;;;;5103516;28;20084;-85
2023/07/28 04:29:21;;;;;;;;;;;;;;;;;;5102510;28;20052;-81
2023/07/28 04:31:47;;;;;;;54.55;20.48;;;;;;;;;;5068359;28;19920;-84
2023/07/28 04:34:13;;;;;;;;;;;;;;;;;;5108394;27;20073;-86
2023/07/28 04:36:39;;;;;;;61.33;21.02;;;;;;;;;;5082463;28;19970;-85
2023/07/28 04:39:05;;;;;;;;;;;;;;;;;;5073633;28;20048;-86
2023/07/28 04:41:31;;;;;;;54.03;19.83;;;;;;;;;;5073095;28;19920;-86
2023/07/28 04:43:57;;;;;;;49.65;19.42;;;;;;;;;;5071996;28;20447;-84
2023/07/28 04:46:23;;;;;;;;;;;;;;;;;;5088405;28;20400;-81
2023/07/28 04:48:49;;;;;;;53.78;20.63;;;;;;;;;;5073195;28;19920;-85
2023/07/28 04:51:15;;;;;;;;;;;;;;;;;;5075956;28;20040;-85
2023/07/28 04:53:42;;;;;;;58.42;20.20;;;;;;;;;;5092403;28;20407;-85
2023/07/28 04:56:08;;;;;;;47.22;19.70;;;;;;;;;;5076381;28;20051;-85
2023/07/28 04:58:34;;;;;;;52.45;21.38;;;;;;;;;;5088898;28;20067;-85
2023/07/28 05:01:01;;;;;;;;;;;;;;;;;;5075627;28;20041;-86
2023/07/28 05:03:27;;;;;;;54.83;20.08;;;;;;;;;;5092505;28;20007;-82
2023/07/28 05:05:53;;;;;;;;;;;;;;;;;;5076845;28;20086;-86
2023/07/28 05:08:19;;;;;;;53.58;20.33;;;;;;;;;;5056955;28;19967;-85
2023/07/28 05:10:45;;;;;;;;;;;;;;;;;;5056356;28;20895;-86
2023/07/28 05:13:11;;;;;;;55.88;19.83;;;;;;;;;;5054314;28;19954;-85
2023/07/28 05:15:37;;;;;;;51.17;20.17;;;;;;;;;;5055743;28;20397;-86
2023/07/28 05:18:03;;;;;;;58.45;21.42;;;;;;;;;;5056066;28;20531;-86
2023/07/28 05:20:29;;;;;;;;;;;;;;;;;;5075207;28;20133;-85
2023/07/28 05:22:55;;;;;;;49.80;20.42;;;;;;;;;;5073301;28;20437;-86
2023/07/28 05:25:22;;;;;;;49.97;20.45;;;;;;;;;;5072608;28;20080;-85
2023/07/28 05:27:48;;;;;;;48.70;20.10;;;;;;;;;;5089084;28;20104;-85
2023/07/28 05:30:14;;;;;;;;;;;;;;;;;;5091943;28;20059;-84
2023/07/28 05:32:40;;;;;;;52.13;20.15;;;;;;;;;;5075271;28;19927;-84
2023/07/28 05:35:06;;;;;;;;;;;;;;;;;;5076419;28;20400;-85
2023/07/28 05:37:32;;;;;;;58.55;20.58;;;;;;;;;;5089150;28;19922;-85
2023/07/28 05:39:58;;;;;;;;;;;;;;;;;;5086781;28;20044;-86
2023/07/28 05:42:24;;;;;;;52.28;20.73;;;;;;;;;;5092887;28;19942;-85
2023/07/28 05:44:52;;;;;;;53.70;20.10;;;;;;;;;;5090368;28;20136;-86
2023/07/28 05:47:19;;;;;;;53.05;20.65;;;;;;;;;;5073399;28;20052;-86
2023/07/28 05:49:45;;;;;;;51.13;20.30;;;;;;;;;;5071799;28;20049;-86
2023/07/28 05:52:11;;;;;;;55.72;20.77;;;;;;;;;;5071904;28;20052;-85
2023/07/28 05:54:37;;;;;;;;;;;;;;;;;;5071696;28;20124;-86
2023/07/28 05:57:03;;;;;;;52.60;20.17;;;;;;;;;;5071922;28;20054;-77
2023/07/28 05:59:29;;;;;;;52.78;20.75;;;;;;;;;;5085880;28;20048;-77
2023/07/28 06:01:55;;;;;;;49.83;20.80;;;;;;;;;;5071290;28;20490;-80
2023/07/28 06:04:21;;;;;;;50.35;19.50;;;;;;;;;;5071020;28;20090;-79
2023/07/28 06:06:47;;;;;;;;;;;;;;;;;;5065350;28;20048;-81
2023/07/28 06:09:14;;;;;;;55.53;20.50;;;;;;;;;;5073782;28;19924;-80
2023/07/28 06:11:40;;;;;;;48.13;20.10;;;;;;;;;;5073544;28;20550;-81
2023/07/28 06:14:06;;;;;;;;;;;;;;;;;;5069944;28;20074;-80
2023/07/28 06:16:32;;;;;;;49.08;19.95;;;;;;;;;;5073425;28;20358;-80
2023/07/28 06:18:58;;;;;;;46.60;20.50;;;;;;;;;;5089375;28;20040;-82
2023/07/28 06:21:24;;;;;;;;;;;;;;;;;;5088708;28;20044;-80
2023/07/28 06:23:50;;;;;;;45.17;18.77;;;;;;;;;;5105365;27;19921;-77
2023/07/28 06:26:16;;;;;;;41.80;18.30;;;;;;;;;;5080840;28;20052;-78
2023/07/28 06:28:42;;;;;;;;;;;;;;;;;;5080092;28;20079;-81
2023/07/28 06:31:09;;;;;;;45.45;18.95;;;;;;;;;;5091295;28;19966;-79
2023/07/28 06:33:36;;;;;;;41.47;19.13;;;;;;;;;;5090744;28;20075;-78
2023/07/28 06:36:03;;;;;;;47.67;18.60;;;;;;;;;;5090822;28;20040;-78
2023/07/28 06:38:29;;;;;;;40.40;19.50;;;;;;;;;;5073896;28;20044;-78
2023/07/28 06:40:55;;;;;;;;;;;;;;;;;;5073766;28;20930;-78
2023/07/28 06:43:21;;;;;;;40.20;17.47;;;;;;;;;;5087213;28;20031;-77
2023/07/28 06:45:47;;;;;;;37.00;18.17;;;;;;;;;;5103288;28;20135;-77
2023/07/28 06:48:14;;;;;;;40.42;19.83;;;;;;;;;;5070511;28;20044;-77
2023/07/28 06:50:40;;;;;;;32.78;17.20;;;;;;;;;;5070333;28;20088;-77
2023/07/28 06:53:06;;;;;;;;;;;;;;;;;;5061784;28;20055;-77
2023/07/28 06:55:32;;;;;;;36.45;17.88;;;;;;;;;;5088022;28;19920;-75
2023/07/28 06:57:58;;;;;;;37.55;17.20;;;;;;;;;;5080417;28;20048;-68
2023/07/28 07:00:24;;;;;;;;;;;;;;;;;;5071862;28;20182;-68
2023/07/28 07:02:50;;;;;;;30.77;16.20;;;;;;;;;;5071162;28;19966;-67
2023/07/28 07:05:16;;;;;;;;;;;;;;;;;;5075810;28;20051;-68
2023/07/28 07:07:42;;;;;;;35.55;17.48;;;;;;;;;;5076869;28;19920;-79
2023/07/28 07:10:09;;;;;;;31.50;16.17;;;;;;;;;;5075654;28;20059;-78
2023/07/28 07:12:35;;;;;;;33.33;15.50;;;;;;;;;;5069816;28;20135;-79
2023/07/28 07:15:01;;;;;;;30.27;15.02;;;;;;;;;;5075318;28;20051;-79
2023/07/28 07:17:28;;;;;;;31.50;15.80;;;;;;;;;;5090267;28;20401;-79
2023/07/28 07:19:54;;;;;;;32.58;16.30;;;;;;;;;;5073307;28;20055;-79
2023/07/28 07:22:20;;;;;;;;;;;;;;;;;;5090715;28;20044;-79
2023/07/28 07:24:46;;;;;;;30.20;14.60;;;;;;;;;;5071408;28;19924;-79
2023/07/28 07:27:12;;;;;;;;;;;;;;;;;;5082303;28;20056;-79
2023/07/28 07:29:41;;;;;;;28.83;13.55;;;;;;;;;;5053875;28;19986;-79
2023/07/28 07:32:07;;;;;;;21.85;12.02;;;;;;;;;;5069730;28;20057;-79
2023/07/28 07:34:34;;;;;;;23.02;12.73;;;;;;;;;;5082853;28;20098;-79
2023/07/28 07:37:01;;;;;;;24.55;11.63;;;;;;;;;;5072713;28;20080;-79
2023/07/28 07:39:27;;;;;;;22.88;10.80;;;;;;;;;;5079479;28;20048;-79
2023/07/28 07:41:53;;;;;;;21.90;12.07;;;;;;;;;;5069630;28;20048;-79
2023/07/28 07:44:19;;;;;;;21.05;12.60;;;;;;;;;;5068506;28;20048;-79
2023/07/28 07:46:46;;;;;;;23.38;13.68;;;;;;;;;;5083094;28;20094;-79
2023/07/28 07:49:11;;;;;;;;;;;;;;;;;;5073809;28;20073;-80
2023/07/28 07:51:38;;;;;;;22.85;13.30;;;;;;;;;;5087450;28;19971;-79
2023/07/28 07:54:04;;;;;;;;;;;;;;;;;;5088963;28;20036;-81
2023/07/28 07:56:30;;;;;;;21.43;12.60;;;;;;;;;;5090062;28;19930;-77
2023/07/28 07:58:56;;;;;;;22.25;12.43;;;;;;;;;;5088087;28;20412;-80
2023/07/28 08:01:22;;;;;;;24.77;11.85;;;;;;;;;;5080075;28;20099;-82
2023/07/28 08:03:48;;;;;;;21.85;11.98;;;;;;;;;;5088925;28;20047;-83
2023/07/28 08:06:14;;;;;;;;;;;;;;;;;;5088888;28;20052;-84
2023/07/28 08:08:40;;;;;;;21.13;12.00;;;;;;;;;;5068453;28;19925;-83
2023/07/28 08:11:07;;;;;;;21.75;11.23;;;;;;;;;;5069313;28;20457;-83
2023/07/28 08:13:33;;;;;;;22.67;13.00;;;;;;;;;;5078763;28;20063;-83
2023/07/28 08:15:59;;;;;;;23.42;11.57;;;;;;;;;;5057079;28;20423;-82
2023/07/28 08:18:25;;;;;;;20.48;11.48;;;;;;;;;;5080730;28;20052;-83
2023/07/28 08:20:51;;;;;;;17.60;11.25;;;;;;;;;;5051569;28;20049;-83
2023/07/28 08:23:17;;;;;;;;;;;;;;;;;;5068055;28;20048;-82
2023/07/28 08:25:43;;;;;;;17.02;10.27;;;;;;;;;;5110815;28;19974;-82
2023/07/28 08:28:09;;;;;;;18.27;10.18;;;;;;;;;;5066908;28;20048;-83
2023/07/28 08:30:35;;;;;;;;;;;;;;;;;;5052027;28;20055;-82
2023/07/28 08:33:02;;;;;;;18.67;9.68;;;;;;;;;;5067888;28;20007;-83
2023/07/28 08:35:28;;;;;;;21.25;10.50;;;;;;;;;;5052174;28;20088;-83
2023/07/28 08:37:54;;;;;;;;;;;;;;;;;;5074244;28;20056;-83
2023/07/28 08:40:21;;;;;;;23.83;10.55;;;;;;;;;;5068512;28;20041;-81
2023/07/28 08:42:49;;;;;;;21.25;9.85;;;;;;;;;;5081515;28;20462;-82
2023/07/28 08:45:15;;;;;;;17.77;9.85;;;;;;;;;;5066960;28;20070;-81
2023/07/28 08:47:41;;;;;;;17.50;9.43;;;;;;;;;;5051660;28;20047;-82
2023/07/28 08:50:07;;;;;;;15.43;9.05;;;;;;;;;;5079504;28;20052;-83
2023/07/28 08:52:33;;;;;;;15.35;8.10;;;;;;;;;;5071268;28;20476;-73
2023/07/28 08:54:59;;;;;;;13.00;7.10;;;;;;;;;;5088171;28;20055;-73
2023/07/28 08:57:26;;;;;;;13.63;6.97;;;;;;;;;;5090162;28;20083;-77
2023/07/28 08:59:53;;;;;;;14.32;7.43;;;;;;;;;;5087854;28;20192;-77
2023/07/28 09:02:20;;;;;;;13.20;7.60;;;;;;;;;;5088973;28;20524;-75
2023/07/28 09:04:46;;;;;;;16.67;8.18;;;;;;;;;;5065120;28;20084;-78
2023/07/28 09:07:13;;;;;;;19.70;9.02;;;;;;;;;;5073133;28;20336;-78
2023/07/28 09:09:40;;;;;;;18.10;8.63;;;;;;;;;;5087078;28;20127;-81
2023/07/28 09:12:07;;;;;;;17.80;8.43;;;;;;;;;;5076778;28;20052;-82
2023/07/28 09:14:35;;;;;;;18.80;9.50;;;;;;;;;;5086793;28;20151;-82
2023/07/28 09:17:08;;;;;;;17.50;9.05;;;;;;;;;;5088487;28;20647;-82
2023/07/28 09:19:34;;;;;;;15.50;8.85;;;;;;;;;;5088783;28;20118;-82
2023/07/28 09:22:01;;;;;;;17.83;8.40;;;;;;;;;;5074684;28;20186;-82
2023/07/28 09:24:33;;;;;;;17.55;8.38;;;;;;;;;;5075343;28;20055;-82
2023/07/28 09:27:00;;;;;;;17.10;8.60;;;;;;;;;;5081019;28;20040;-82
2023/07/28 09:29:30;;;;;;;15.82;8.65;;;;;;;;;;5103406;28;20075;-82
2023/07/28 09:32:04;;;;;;;19.48;8.68;;;;;;;;;;5074439;28;20092;-82
2023/07/28 09:34:30;;;;;;;19.23;8.35;;;;;;;;;;5079887;28;20074;-82
2023/07/28 09:37:00;;;;;;;15.43;9.25;;;;;;;;;;5092040;28;20063;-81
2023/07/28 09:39:27;;;;;;;22.88;9.75;;;;;;;;;;5082389;28;20106;-82
2023/07/28 09:41:58;;;;;;;18.75;8.95;;;;;;;;;;5056031;28;20127;-81
2023/07/28 09:44:24;;;;;;;19.17;9.85;;;;;;;;;;5071212;28;20049;-82
2023/07/28 09:46:51;;;;;;;21.85;9.40;;;;;;;;;;5071789;28;20750;-82
2023/07/28 09:49:20;;;;;;;15.35;8.40;;;;;;;;;;5071810;28;20044;-82
2023/07/28 09:51:49;;;;;;;18.05;8.68;;;;;;;;;;5072598;28;20139;-82
2023/07/28 09:54:25;;;;;;;15.25;8.43;;;;;;;;;;5082550;28;20126;-82
2023/07/28 09:56:51;;;;;;;16.90;9.00;;;;;;;;;;5076035;28;20044;-81
2023/07/28 09:59:17;;;;;;;15.30;9.43;;;;;;;;;;5072366;28;20055;-81
2023/07/28 10:01:45;;;;;;;21.83;11.43;;;;;;;;;;5092089;28;20052;-80
2023/07/28 10:04:11;;;;;;;20.05;11.35;;;;;;;;;;5091561;28;20098;-81
2023/07/28 10:06:38;;;;;;;20.00;9.80;;;;;;;;;;5082726;28;20433;-80
2023/07/28 10:09:05;;;;;;;21.17;10.63;;;;;;;;;;5081656;28;20073;-80
2023/07/28 10:11:31;;;;;;;16.38;10.25;;;;;;;;;;5088236;28;20048;-80
2023/07/28 10:13:58;;;;;;;19.45;9.57;;;;;;;;;;5069773;28;20057;-79
2023/07/28 10:16:31;;;;;;;14.23;7.30;;;;;;;;;;5073522;28;20157;-80
2023/07/28 10:18:59;;;;;;;16.40;7.82;;;;;;;;;;5059831;28;20044;-80
2023/07/28 10:21:27;;;;;;;16.70;8.18;;;;;;;;;;5071185;28;20045;-80
2023/07/28 10:23:58;;;;;;;17.52;8.38;;;;;;;;;;5071267;28;20048;-80
2023/07/28 10:26:37;;;;;;;23.40;10.63;;;;;;;;;;5054475;28;20051;-81
2023/07/28 10:29:13;;;;;;;19.65;12.10;;;;;;;;;;5075499;28;20405;-81
2023/07/28 10:31:57;;;;;;;21.58;12.45;;;;;;;;;;5091603;28;20056;-81
2023/07/28 10:34:24;;;;;;;25.65;13.07;;;;;;;;;;5087609;28;20043;-80
2023/07/28 10:36:57;;;;;;;19.58;11.30;;;;;;;;;;5065179;28;20080;-81
2023/07/28 10:39:23;;;;;;;14.55;8.55;;;;;;;;;;5073935;28;20050;-81
2023/07/28 10:42:06;;;;;;;19.33;8.07;;;;;;;;;;5078604;28;20090;-80
2023/07/28 10:44:33;;;;;;;16.52;9.82;;;;;;;;;;5069936;28;20063;-80
2023/07/28 10:46:59;;;;;;;17.38;8.57;;;;;;;;;;5054376;28;20052;-80
2023/07/28 10:49:26;;;;;;;18.25;8.88;;;;;;;;;;5069770;28;20058;-80
2023/07/28 10:51:52;;;;;;;15.20;9.70;;;;;;;;;;5068980;28;20105;-80
2023/07/28 10:54:19;;;;;;;15.00;9.13;;;;;;;;;;5088493;28;20052;-75
2023/07/28 10:56:46;;;;;;;17.33;9.25;;;;;;;;;;5069705;28;20052;-74
2023/07/28 10:59:12;;;;;;;14.73;9.20;;;;;;;;;;5079337;28;20060;-73
2023/07/28 11:01:39;;;;;;;30.17;9.88;;;;;;;;;;5071103;28;20127;-73
2023/07/28 11:04:11;;;;;;;15.77;9.57;;;;;;;;;;5075083;28;20097;-72
2023/07/28 11:06:39;;;;;;;17.63;9.60;;;;;;;;;;5087050;28;20059;-74
2023/07/28 11:09:09;;;;;;;13.95;9.02;;;;;;;;;;5078929;28;20085;-75
2023/07/28 11:11:36;;;;;;;18.83;11.40;;;;;;;;;;5072357;28;20127;-74
2023/07/28 11:14:03;;;;;;;26.98;12.82;;;;;;;;;;5067713;28;20501;-78
2023/07/28 11:16:29;;;;;;;21.05;11.63;;;;;;;;;;5057269;28;20121;-75
2023/07/28 11:18:57;;;;;;;20.23;11.05;;;;;;;;;;5069449;28;20543;-72
2023/07/28 11:21:23;;;;;;;27.52;10.80;;;;;;;;;;5068684;28;20044;-72
2023/07/28 11:23:50;;;;;;;15.35;9.18;;;;;;;;;;5052586;28;20477;-73
2023/07/28 11:26:17;;;;;;;55.47;12.10;;;;;;;;;;5068735;28;20056;-72
2023/07/28 11:28:44;;;;;;;26.00;10.73;;;;;;;;;;5077955;28;20043;-72
2023/07/28 11:31:10;;;;;;;23.23;11.10;;;;;;;;;;5067496;28;20059;-73
2023/07/28 11:33:36;;;;;;;17.30;8.60;;;;;;;;;;5075112;28;20044;-75
2023/07/28 11:36:02;;;;;;;16.67;9.18;;;;;;;;;;5089969;28;20043;-78
2023/07/28 11:38:29;;;;;;;12.40;7.30;;;;;;;;;;5079866;28;20502;-76
2023/07/28 11:40:55;;;;;;;13.70;9.18;;;;;;;;;;5068500;28;20048;-74
2023/07/28 11:43:23;;;;;;;16.75;11.10;;;;;;;;;;5070767;28;20130;-74
2023/07/28 11:45:49;;;;;;;26.90;13.60;;;;;;;;;;5077991;28;20052;-76
2023/07/28 11:48:17;;;;;;;18.30;10.63;;;;;;;;;;5051957;28;20524;-76
2023/07/28 11:50:45;;;;;;;16.50;9.90;;;;;;;;;;5069659;28;20059;-75
2023/07/28 11:53:11;;;;;;;18.33;10.13;;;;;;;;;;5084307;28;20032;-76
2023/07/28 11:55:38;;;;;;;16.50;9.50;;;;;;;;;;5074701;28;20052;-76
2023/07/28 11:58:08;;;;;;;18.10;11.07;;;;;;;;;;5101844;28;20094;-76
2023/07/28 12:00:39;;;;;;;20.88;10.88;;;;;;;;;;5070134;28;20044;-76
2023/07/28 12:03:12;;;;;;;18.48;10.50;;;;;;;;;;5069004;28;20113;-76
2023/07/28 12:05:58;;;;;;;16.45;10.10;;;;;;;;;;5059905;28;20052;-76
2023/07/28 12:08:34;;;;;;;19.70;11.48;;;;;;;;;;5061140;28;20048;-76
2023/07/28 12:11:00;;;;;;;16.77;11.00;;;;;;;;;;5072782;28;20056;-77
2023/07/28 12:13:27;;;;;;;22.02;11.93;;;;;;;;;;5069421;28;20114;-77
2023/07/28 12:15:53;;;;;;;13.95;9.82;;;;;;;;;;5069598;28;20417;-79
2023/07/28 12:18:19;;;;;;;12.25;7.82;;;;;;;;;;5096608;28;20044;-77
2023/07/28 12:20:46;;;;;;;17.20;8.25;;;;;;;;;;5089109;28;20040;-77
2023/07/28 12:23:14;;;;;;;13.95;7.80;;;;;;;;;;5078088;28;20052;-77
2023/07/28 12:25:40;;;;;;;11.05;6.93;;;;;;;;;;5081943;28;20040;-75
2023/07/28 12:28:06;;;;;;;12.13;5.22;;;;;;;;;;5078286;28;20080;-76
2023/07/28 12:30:33;;;;;;;9.35;5.15;;;;;;;;;;5088837;28;20044;-74
2023/07/28 12:33:00;;;;;;;12.10;5.20;;;;;;;;;;5085686;28;20052;-73
2023/07/28 12:35:30;;;;;;;7.40;5.38;;;;;;;;;;5070177;28;20060;-73
2023/07/28 12:38:34;;;;;;;9.02;5.50;;;;;;;;;;5090021;27;20200;-71
2023/07/28 12:41:00;;;;;;;10.32;5.20;;;;;;;;;;5093516;27;20508;-77
2023/07/28 12:43:28;;;;;;;7.40;4.45;;;;;;;;;;5089537;28;20474;-75
2023/07/28 12:45:55;;;;;;;9.75;5.10;;;;;;;;;;5089767;28;20077;-76
2023/07/28 12:48:21;;;;;;;10.27;4.65;;;;;;;;;;5087011;28;20050;-77
2023/07/28 12:50:47;;;;;;;8.05;4.57;;;;;;;;;;5095286;28;20056;-72
2023/07/28 12:53:13;;;;;;;6.90;4.40;;;;;;;;;;5105399;28;20058;-80
2023/07/28 12:55:39;;;;;;;8.20;4.10;;;;;;;;;;5107105;28;20063;-76
2023/07/28 12:58:05;;;;;;;6.10;4.25;;;;;;;;;;5106343;28;20404;-77
2023/07/28 13:00:31;;;;;;;6.25;4.15;;;;;;;;;;5089463;28;20047;-77
2023/07/28 13:03:25;;;;;;;9.57;4.30;;;;;;;;;;5091997;27;1975202;-76
2023/07/28 13:05:51;;;;;;;8.48;4.18;;;;;;;;;;5123467;27;20130;-77
2023/07/28 13:08:17;;;;;;;8.98;4.50;;;;;;;;;;5134709;27;20096;-76
2023/07/28 13:11:39;;;;;;;9.38;4.07;;;;;;;;;;5124386;27;20353;-77
2023/07/28 13:14:05;;;;;;;9.07;5.00;;;;;;;;;;5106735;28;20047;-74
2023/07/28 13:16:31;;;;;;;10.45;4.97;;;;;;;;;;5110028;28;20116;-73
2023/07/28 13:18:59;;;;;;;8.70;4.30;;;;;;;;;;5119685;28;20370;-72
2023/07/28 13:21:25;;;;;;;6.75;3.88;;;;;;;;;;5094610;28;20381;-72
2023/07/28 13:23:51;;;;;;;5.07;3.10;;;;;;;;;;5089285;28;20047;-75
2023/07/28 13:26:17;;;;;;;7.95;2.78;;;;;;;;;;5088591;28;20051;-82
2023/07/28 13:28:47;;;;;;;5.05;2.90;;;;;;;;;;5086919;28;20047;-76
2023/07/28 13:31:14;;;;;;;7.25;2.67;;;;;;;;;;5109936;28;20042;-76
2023/07/28 13:33:40;;;;;;;8.40;3.10;;;;;;;;;;5098043;28;20047;-78
2023/07/28 13:36:07;;;;;;;6.35;3.17;;;;;;;;;;5089324;28;20114;-75
2023/07/28 13:38:34;;;;;;;6.57;3.00;;;;;;;;;;5080499;28;20055;-75
2023/07/28 13:41:00;;;;;;;6.85;2.80;;;;;;;;;;5101801;28;20051;-75
2023/07/28 13:43:26;;;;;;;6.05;2.78;;;;;;;;;;5100065;28;20043;-75
2023/07/28 13:45:52;;;;;;;6.28;3.10;;;;;;;;;;5102432;28;20051;-75
2023/07/28 13:48:18;;;;;;;5.60;2.92;;;;;;;;;;5091791;28;20040;-80
2023/07/28 13:50:44;;;;;;;5.93;2.83;;;;;;;;;;5088727;28;20051;-76
2023/07/28 13:53:10;;;;;;;4.72;2.80;;;;;;;;;;5072767;28;20431;-75
2023/07/28 13:55:36;;;;;;;3.30;2.42;;;;;;;;;;5105716;28;20054;-74
2023/07/28 13:58:02;;;;;;;4.55;2.58;;;;;;;;;;5089657;28;20036;-71
2023/07/28 14:00:28;;;;;;;5.57;2.70;;;;;;;;;;5088492;28;20048;-74
2023/07/28 14:02:54;;;;;;;7.10;3.15;;;;;;;;;;5114610;28;20043;-79
2023/07/28 14:05:22;;;;;;;4.75;3.50;;;;;;;;;;5066966;28;20051;-83
2023/07/28 14:07:48;;;;;;;4.47;2.70;;;;;;;;;;5104178;28;20435;-78
2023/07/28 14:10:14;;;;;;;3.92;2.38;;;;;;;;;;5059845;28;20066;-80
2023/07/28 14:12:41;;;;;;;5.25;2.60;;;;;;;;;;5084969;28;20082;-73
2023/07/28 14:15:08;;;;;;;6.40;2.30;;;;;;;;;;5086667;28;20401;-72
2023/07/28 14:17:34;;;;;;;3.65;2.40;;;;;;;;;;5085287;28;20071;-73
2023/07/28 14:20:00;;;;;;;12.65;3.83;;;;;;;;;;5090307;28;20131;-76
2023/07/28 14:22:26;;;;;;;3.97;2.30;;;;;;;;;;5084256;28;20043;-80
2023/07/28 14:24:52;;;;;;;5.88;2.97;;;;;;;;;;5044991;28;20044;-71
2023/07/28 14:27:18;;;;;;;6.47;3.00;;;;;;;;;;5088931;28;20051;-71
2023/07/28 14:29:44;;;;;;;7.22;3.10;;;;;;;;;;5071739;28;20123;-70
2023/07/28 14:32:10;;;;;;;12.75;4.25;;;;;;;;;;5071890;28;20058;-72
2023/07/28 14:34:36;;;;;;;5.57;2.90;;;;;;;;;;5054905;28;20044;-71
2023/07/28 14:37:07;;;;;;;5.53;3.25;;;;;;;;;;5073022;28;20095;-72
2023/07/28 14:39:33;;;;;;;12.88;4.25;;;;;;;;;;5071595;28;20090;-71
2023/07/28 14:42:00;;;;;;;4.65;3.10;;;;;;;;;;5070727;28;20114;-71
2023/07/28 14:44:26;;;;;;;7.00;3.42;;;;;;;;;;5072684;28;20542;-69
2023/07/28 14:46:52;;;;;;;5.45;2.92;;;;;;;;;;5065453;28;20141;-71